sensor_id;sensor_type;location;lat;lon;timestamp;P1;durP1;ratioP1;P2;durP2;ratioP2
38113;SDS011;23926;53.222;6.354;2023-03-01T00:01:09;17.15;;;11.50;;
38113;SDS011;23926;53.222;6.354;2023-03-01T00:03:38;39.15;;;14.95;;
38113;SDS011;23926;53.222;6.354;2023-03-01T00:06:04;32.13;;;15.25;;
38113;SDS011;23926;53.222;6.354;2023-03-01T00:08:30;47.80;;;20.38;;
38113;SDS011;23926;53.222;6.354;2023-03-01T00:11:03;53.03;;;20.77;;
38113;SDS011;23926;53.222;6.354;2023-03-01T00:13:31;59.85;;;23.33;;
38113;SDS011;23926;53.222;6.354;2023-03-01T00:15:57;50.97;;;22.23;;
38113;SDS011;23926;53.222;6.354;2023-03-01T00:18:22;42.05;;;19.90;;
38113;SDS011;23926;53.222;6.354;2023-03-01T00:20:52;52.30;;;22.20;;
38113;SDS011;23926;53.222;6.354;2023-03-01T00:23:19;45.80;;;19.45;;
38113;SDS011;23926;53.222;6.354;2023-03-01T00:25:45;41.60;;;20.17;;
38113;SDS011;23926;53.222;6.354;2023-03-01T00:28:10;43.33;;;19.58;;
38113;SDS011;23926;53.222;6.354;2023-03-01T00:30:36;64.07;;;22.23;;
38113;SDS011;23926;53.222;6.354;2023-03-01T00:33:01;69.25;;;20.73;;
38113;SDS011;23926;53.222;6.354;2023-03-01T00:35:26;65.85;;;16.88;;
38113;SDS011;23926;53.222;6.354;2023-03-01T00:37:52;70.20;;;19.75;;
38113;SDS011;23926;53.222;6.354;2023-03-01T00:40:23;39.25;;;20.20;;
38113;SDS011;23926;53.222;6.354;2023-03-01T00:42:52;42.92;;;21.10;;
38113;SDS011;23926;53.222;6.354;2023-03-01T00:45:18;84.35;;;22.52;;
38113;SDS011;23926;53.222;6.354;2023-03-01T00:47:43;70.78;;;18.33;;
38113;SDS011;23926;53.222;6.354;2023-03-01T00:50:09;82.35;;;22.65;;
38113;SDS011;23926;53.222;6.354;2023-03-01T00:52:35;34.13;;;19.48;;
38113;SDS011;23926;53.222;6.354;2023-03-01T00:55:00;34.58;;;19.80;;
38113;SDS011;23926;53.222;6.354;2023-03-01T00:57:26;38.75;;;20.90;;
38113;SDS011;23926;53.222;6.354;2023-03-01T00:59:52;62.33;;;22.15;;
38113;SDS011;23926;53.222;6.354;2023-03-01T01:02:17;54.60;;;18.73;;
38113;SDS011;23926;53.222;6.354;2023-03-01T01:04:43;30.15;;;14.70;;
38113;SDS011;23926;53.222;6.354;2023-03-01T01:07:09;19.35;;;12.10;;
38113;SDS011;23926;53.222;6.354;2023-03-01T01:09:34;31.48;;;13.05;;
38113;SDS011;23926;53.222;6.354;2023-03-01T01:12:00;17.90;;;11.68;;
38113;SDS011;23926;53.222;6.354;2023-03-01T01:14:26;28.40;;;12.23;;
38113;SDS011;23926;53.222;6.354;2023-03-01T01:16:52;126.35;;;21.00;;
38113;SDS011;23926;53.222;6.354;2023-03-01T01:19:17;110.18;;;20.50;;
38113;SDS011;23926;53.222;6.354;2023-03-01T01:21:43;133.07;;;21.88;;
38113;SDS011;23926;53.222;6.354;2023-03-01T01:24:09;24.63;;;12.25;;
38113;SDS011;23926;53.222;6.354;2023-03-01T01:26:36;90.05;;;14.50;;
38113;SDS011;23926;53.222;6.354;2023-03-01T01:29:02;70.97;;;14.70;;
38113;SDS011;23926;53.222;6.354;2023-03-01T01:31:29;61.30;;;16.15;;
38113;SDS011;23926;53.222;6.354;2023-03-01T01:33:55;37.85;;;16.45;;
38113;SDS011;23926;53.222;6.354;2023-03-01T01:36:21;70.75;;;16.85;;
38113;SDS011;23926;53.222;6.354;2023-03-01T01:38:47;132.55;;;22.48;;
38113;SDS011;23926;53.222;6.354;2023-03-01T01:41:13;41.88;;;15.75;;
38113;SDS011;23926;53.222;6.354;2023-03-01T01:49:03;25.05;;;13.27;;
38113;SDS011;23926;53.222;6.354;2023-03-01T01:51:42;33.85;;;12.57;;
38113;SDS011;23926;53.222;6.354;2023-03-01T01:54:15;45.97;;;14.57;;
38113;SDS011;23926;53.222;6.354;2023-03-01T01:56:52;93.60;;;14.05;;
38113;SDS011;23926;53.222;6.354;2023-03-01T01:59:22;29.08;;;10.18;;
38113;SDS011;23926;53.222;6.354;2023-03-01T02:01:51;70.63;;;14.98;;
38113;SDS011;23926;53.222;6.354;2023-03-01T02:04:17;122.63;;;19.73;;
38113;SDS011;23926;53.222;6.354;2023-03-01T02:06:45;65.88;;;19.38;;
38113;SDS011;23926;53.222;6.354;2023-03-01T02:09:18;88.50;;;17.45;;
38113;SDS011;23926;53.222;6.354;2023-03-01T02:11:45;102.07;;;15.93;;
38113;SDS011;23926;53.222;6.354;2023-03-01T02:14:12;141.90;;;21.90;;
38113;SDS011;23926;53.222;6.354;2023-03-01T02:16:39;62.88;;;15.45;;
38113;SDS011;23926;53.222;6.354;2023-03-01T02:19:06;46.70;;;18.98;;
38113;SDS011;23926;53.222;6.354;2023-03-01T02:26:56;38.25;;;14.82;;
38113;SDS011;23926;53.222;6.354;2023-03-01T02:29:23;46.33;;;18.40;;
38113;SDS011;23926;53.222;6.354;2023-03-01T02:31:49;35.97;;;17.13;;
38113;SDS011;23926;53.222;6.354;2023-03-01T02:34:20;35.17;;;16.38;;
38113;SDS011;23926;53.222;6.354;2023-03-01T02:36:54;30.02;;;14.00;;
38113;SDS011;23926;53.222;6.354;2023-03-01T02:39:36;28.85;;;14.73;;
38113;SDS011;23926;53.222;6.354;2023-03-01T02:42:07;27.45;;;14.68;;
38113;SDS011;23926;53.222;6.354;2023-03-01T02:44:36;38.80;;;16.45;;
38113;SDS011;23926;53.222;6.354;2023-03-01T02:47:02;39.28;;;17.92;;
38113;SDS011;23926;53.222;6.354;2023-03-01T02:49:29;45.80;;;15.93;;
38113;SDS011;23926;53.222;6.354;2023-03-01T02:57:03;73.32;;;16.75;;
38113;SDS011;23926;53.222;6.354;2023-03-01T02:59:32;63.58;;;16.00;;
38113;SDS011;23926;53.222;6.354;2023-03-01T03:02:04;82.50;;;16.67;;
38113;SDS011;23926;53.222;6.354;2023-03-01T03:04:31;67.15;;;14.77;;
38113;SDS011;23926;53.222;6.354;2023-03-01T03:06:56;74.03;;;18.33;;
38113;SDS011;23926;53.222;6.354;2023-03-01T03:09:22;43.63;;;15.93;;
38113;SDS011;23926;53.222;6.354;2023-03-01T03:11:47;45.75;;;14.75;;
38113;SDS011;23926;53.222;6.354;2023-03-01T03:14:14;58.15;;;13.88;;
38113;SDS011;23926;53.222;6.354;2023-03-01T03:16:50;76.05;;;15.82;;
38113;SDS011;23926;53.222;6.354;2023-03-01T03:19:16;135.48;;;17.77;;
38113;SDS011;23926;53.222;6.354;2023-03-01T03:21:43;124.22;;;18.65;;
38113;SDS011;23926;53.222;6.354;2023-03-01T03:24:09;91.90;;;17.88;;
38113;SDS011;23926;53.222;6.354;2023-03-01T03:26:35;57.78;;;14.75;;
38113;SDS011;23926;53.222;6.354;2023-03-01T03:29:00;50.83;;;12.15;;
38113;SDS011;23926;53.222;6.354;2023-03-01T03:31:26;26.75;;;12.35;;
38113;SDS011;23926;53.222;6.354;2023-03-01T03:33:52;33.22;;;16.85;;
38113;SDS011;23926;53.222;6.354;2023-03-01T03:36:18;61.97;;;16.77;;
38113;SDS011;23926;53.222;6.354;2023-03-01T03:38:46;21.90;;;11.57;;
38113;SDS011;23926;53.222;6.354;2023-03-01T03:41:12;37.65;;;14.77;;
38113;SDS011;23926;53.222;6.354;2023-03-01T03:43:38;26.45;;;11.93;;
38113;SDS011;23926;53.222;6.354;2023-03-01T03:46:05;20.02;;;10.77;;
38113;SDS011;23926;53.222;6.354;2023-03-01T03:48:35;77.32;;;14.88;;
38113;SDS011;23926;53.222;6.354;2023-03-01T03:51:02;67.78;;;14.50;;
38113;SDS011;23926;53.222;6.354;2023-03-01T03:53:30;12.05;;;8.05;;
38113;SDS011;23926;53.222;6.354;2023-03-01T03:55:56;43.72;;;10.32;;
38113;SDS011;23926;53.222;6.354;2023-03-01T03:58:23;77.00;;;13.85;;
38113;SDS011;23926;53.222;6.354;2023-03-01T04:00:51;34.88;;;9.48;;
38113;SDS011;23926;53.222;6.354;2023-03-01T04:03:20;35.35;;;11.73;;
38113;SDS011;23926;53.222;6.354;2023-03-01T04:05:46;26.17;;;9.35;;
38113;SDS011;23926;53.222;6.354;2023-03-01T04:08:12;19.63;;;9.07;;
38113;SDS011;23926;53.222;6.354;2023-03-01T04:10:42;23.08;;;8.70;;
38113;SDS011;23926;53.222;6.354;2023-03-01T04:13:11;118.53;;;14.75;;
38113;SDS011;23926;53.222;6.354;2023-03-01T04:15:38;107.60;;;15.63;;
38113;SDS011;23926;53.222;6.354;2023-03-01T04:18:04;84.50;;;13.07;;
38113;SDS011;23926;53.222;6.354;2023-03-01T04:20:31;87.15;;;13.93;;
38113;SDS011;23926;53.222;6.354;2023-03-01T04:23:01;82.35;;;16.42;;
38113;SDS011;23926;53.222;6.354;2023-03-01T04:25:57;50.05;;;12.75;;
38113;SDS011;23926;53.222;6.354;2023-03-01T04:30:53;44.42;;;11.73;;
38113;SDS011;23926;53.222;6.354;2023-03-01T04:33:20;42.92;;;12.95;;
38113;SDS011;23926;53.222;6.354;2023-03-01T04:35:46;77.47;;;14.23;;
38113;SDS011;23926;53.222;6.354;2023-03-01T04:38:14;40.15;;;12.70;;
38113;SDS011;23926;53.222;6.354;2023-03-01T04:40:40;46.50;;;12.23;;
38113;SDS011;23926;53.222;6.354;2023-03-01T04:43:08;44.78;;;11.88;;
38113;SDS011;23926;53.222;6.354;2023-03-01T04:45:34;31.98;;;10.85;;
38113;SDS011;23926;53.222;6.354;2023-03-01T04:48:00;32.08;;;11.48;;
38113;SDS011;23926;53.222;6.354;2023-03-01T04:50:25;28.45;;;11.20;;
38113;SDS011;23926;53.222;6.354;2023-03-01T04:52:51;41.60;;;12.38;;
38113;SDS011;23926;53.222;6.354;2023-03-01T04:55:16;29.77;;;12.13;;
38113;SDS011;23926;53.222;6.354;2023-03-01T04:57:42;36.25;;;11.50;;
38113;SDS011;23926;53.222;6.354;2023-03-01T05:00:09;36.65;;;12.23;;
38113;SDS011;23926;53.222;6.354;2023-03-01T05:02:56;37.47;;;10.50;;
38113;SDS011;23926;53.222;6.354;2023-03-01T05:05:34;21.25;;;10.35;;
38113;SDS011;23926;53.222;6.354;2023-03-01T05:08:02;29.70;;;10.82;;
38113;SDS011;23926;53.222;6.354;2023-03-01T05:10:30;23.65;;;11.20;;
38113;SDS011;23926;53.222;6.354;2023-03-01T05:12:57;20.10;;;10.07;;
38113;SDS011;23926;53.222;6.354;2023-03-01T05:15:23;13.25;;;8.52;;
38113;SDS011;23926;53.222;6.354;2023-03-01T05:17:50;16.38;;;8.55;;
38113;SDS011;23926;53.222;6.354;2023-03-01T05:20:16;15.63;;;8.38;;
38113;SDS011;23926;53.222;6.354;2023-03-01T05:22:42;26.58;;;12.00;;
38113;SDS011;23926;53.222;6.354;2023-03-01T05:25:08;20.42;;;10.70;;
38113;SDS011;23926;53.222;6.354;2023-03-01T05:27:34;27.13;;;13.40;;
38113;SDS011;23926;53.222;6.354;2023-03-01T05:30:00;19.63;;;10.82;;
38113;SDS011;23926;53.222;6.354;2023-03-01T05:32:38;21.20;;;11.45;;
38113;SDS011;23926;53.222;6.354;2023-03-01T05:35:08;20.02;;;10.70;;
38113;SDS011;23926;53.222;6.354;2023-03-01T05:37:38;18.75;;;10.10;;
38113;SDS011;23926;53.222;6.354;2023-03-01T05:40:05;23.55;;;11.07;;
38113;SDS011;23926;53.222;6.354;2023-03-01T05:42:30;21.80;;;11.25;;
38113;SDS011;23926;53.222;6.354;2023-03-01T05:44:56;21.33;;;11.02;;
38113;SDS011;23926;53.222;6.354;2023-03-01T05:47:21;21.80;;;11.45;;
38113;SDS011;23926;53.222;6.354;2023-03-01T05:49:47;28.52;;;12.20;;
38113;SDS011;23926;53.222;6.354;2023-03-01T05:52:14;71.60;;;14.63;;
38113;SDS011;23926;53.222;6.354;2023-03-01T05:54:39;38.05;;;13.75;;
38113;SDS011;23926;53.222;6.354;2023-03-01T05:57:05;33.42;;;12.95;;
38113;SDS011;23926;53.222;6.354;2023-03-01T05:59:30;21.73;;;11.52;;
38113;SDS011;23926;53.222;6.354;2023-03-01T06:01:56;19.02;;;11.00;;
38113;SDS011;23926;53.222;6.354;2023-03-01T06:04:21;22.38;;;11.15;;
38113;SDS011;23926;53.222;6.354;2023-03-01T06:06:47;16.90;;;10.55;;
38113;SDS011;23926;53.222;6.354;2023-03-01T06:09:12;14.82;;;9.95;;
38113;SDS011;23926;53.222;6.354;2023-03-01T06:11:37;30.45;;;11.48;;
38113;SDS011;23926;53.222;6.354;2023-03-01T06:14:03;50.15;;;14.13;;
38113;SDS011;23926;53.222;6.354;2023-03-01T06:16:32;42.50;;;14.93;;
38113;SDS011;23926;53.222;6.354;2023-03-01T06:18:57;27.50;;;13.68;;
38113;SDS011;23926;53.222;6.354;2023-03-01T06:21:25;42.88;;;15.05;;
38113;SDS011;23926;53.222;6.354;2023-03-01T06:23:51;48.25;;;14.35;;
38113;SDS011;23926;53.222;6.354;2023-03-01T06:26:16;47.15;;;16.73;;
38113;SDS011;23926;53.222;6.354;2023-03-01T06:28:42;31.08;;;16.08;;
38113;SDS011;23926;53.222;6.354;2023-03-01T06:31:10;25.98;;;13.60;;
38113;SDS011;23926;53.222;6.354;2023-03-01T06:33:36;22.25;;;13.65;;
38113;SDS011;23926;53.222;6.354;2023-03-01T06:36:05;23.83;;;13.55;;
38113;SDS011;23926;53.222;6.354;2023-03-01T06:38:32;22.17;;;13.23;;
38113;SDS011;23926;53.222;6.354;2023-03-01T06:40:58;20.92;;;12.18;;
38113;SDS011;23926;53.222;6.354;2023-03-01T06:43:23;15.30;;;9.82;;
38113;SDS011;23926;53.222;6.354;2023-03-01T06:45:49;19.35;;;11.60;;
38113;SDS011;23926;53.222;6.354;2023-03-01T06:48:14;19.10;;;11.98;;
38113;SDS011;23926;53.222;6.354;2023-03-01T06:50:40;13.60;;;9.20;;
38113;SDS011;23926;53.222;6.354;2023-03-01T06:53:05;15.63;;;10.55;;
38113;SDS011;23926;53.222;6.354;2023-03-01T06:55:31;21.67;;;12.82;;
38113;SDS011;23926;53.222;6.354;2023-03-01T06:58:00;24.58;;;13.02;;
38113;SDS011;23926;53.222;6.354;2023-03-01T07:00:27;30.55;;;13.70;;
38113;SDS011;23926;53.222;6.354;2023-03-01T07:02:53;28.90;;;14.05;;
38113;SDS011;23926;53.222;6.354;2023-03-01T07:05:19;35.50;;;14.60;;
38113;SDS011;23926;53.222;6.354;2023-03-01T07:07:44;42.88;;;15.75;;
38113;SDS011;23926;53.222;6.354;2023-03-01T07:10:10;38.58;;;16.35;;
38113;SDS011;23926;53.222;6.354;2023-03-01T07:12:36;35.25;;;15.10;;
38113;SDS011;23926;53.222;6.354;2023-03-01T07:15:02;19.73;;;10.70;;
38113;SDS011;23926;53.222;6.354;2023-03-01T07:17:28;14.45;;;8.98;;
38113;SDS011;23926;53.222;6.354;2023-03-01T07:19:54;14.15;;;8.43;;
38113;SDS011;23926;53.222;6.354;2023-03-01T07:22:19;15.70;;;8.93;;
38113;SDS011;23926;53.222;6.354;2023-03-01T07:24:45;20.92;;;11.60;;
38113;SDS011;23926;53.222;6.354;2023-03-01T07:27:10;15.98;;;9.48;;
38113;SDS011;23926;53.222;6.354;2023-03-01T07:29:36;16.63;;;9.95;;
38113;SDS011;23926;53.222;6.354;2023-03-01T07:32:02;19.67;;;11.23;;
38113;SDS011;23926;53.222;6.354;2023-03-01T07:34:28;16.73;;;9.27;;
38113;SDS011;23926;53.222;6.354;2023-03-01T07:36:53;14.30;;;9.32;;
38113;SDS011;23926;53.222;6.354;2023-03-01T07:39:19;16.02;;;10.27;;
38113;SDS011;23926;53.222;6.354;2023-03-01T07:41:44;14.85;;;9.30;;
38113;SDS011;23926;53.222;6.354;2023-03-01T07:44:10;14.43;;;9.65;;
38113;SDS011;23926;53.222;6.354;2023-03-01T07:46:36;20.17;;;12.98;;
38113;SDS011;23926;53.222;6.354;2023-03-01T07:49:01;20.38;;;12.63;;
38113;SDS011;23926;53.222;6.354;2023-03-01T07:51:27;18.08;;;10.90;;
38113;SDS011;23926;53.222;6.354;2023-03-01T07:53:52;19.00;;;11.90;;
38113;SDS011;23926;53.222;6.354;2023-03-01T07:56:18;17.33;;;11.35;;
38113;SDS011;23926;53.222;6.354;2023-03-01T07:58:44;16.95;;;11.02;;
38113;SDS011;23926;53.222;6.354;2023-03-01T08:01:12;18.90;;;11.05;;
38113;SDS011;23926;53.222;6.354;2023-03-01T08:03:39;15.80;;;10.68;;
38113;SDS011;23926;53.222;6.354;2023-03-01T08:06:06;17.98;;;11.88;;
38113;SDS011;23926;53.222;6.354;2023-03-01T08:08:33;16.10;;;10.60;;
38113;SDS011;23926;53.222;6.354;2023-03-01T08:10:59;17.75;;;10.70;;
38113;SDS011;23926;53.222;6.354;2023-03-01T08:13:27;14.18;;;10.15;;
38113;SDS011;23926;53.222;6.354;2023-03-01T08:15:53;18.45;;;11.82;;
38113;SDS011;23926;53.222;6.354;2023-03-01T08:18:19;18.25;;;11.63;;
38113;SDS011;23926;53.222;6.354;2023-03-01T08:20:46;17.02;;;10.98;;
38113;SDS011;23926;53.222;6.354;2023-03-01T08:23:14;15.55;;;11.35;;
38113;SDS011;23926;53.222;6.354;2023-03-01T08:25:41;14.88;;;10.07;;
38113;SDS011;23926;53.222;6.354;2023-03-01T08:28:08;14.02;;;9.75;;
38113;SDS011;23926;53.222;6.354;2023-03-01T08:30:35;14.02;;;10.50;;
38113;SDS011;23926;53.222;6.354;2023-03-01T08:33:02;14.05;;;10.52;;
38113;SDS011;23926;53.222;6.354;2023-03-01T08:35:30;15.13;;;10.07;;
38113;SDS011;23926;53.222;6.354;2023-03-01T08:37:57;13.93;;;9.85;;
38113;SDS011;23926;53.222;6.354;2023-03-01T08:40:27;16.02;;;10.93;;
38113;SDS011;23926;53.222;6.354;2023-03-01T08:42:54;15.60;;;10.77;;
38113;SDS011;23926;53.222;6.354;2023-03-01T08:45:22;19.40;;;12.23;;
38113;SDS011;23926;53.222;6.354;2023-03-01T08:47:52;17.10;;;11.60;;
38113;SDS011;23926;53.222;6.354;2023-03-01T08:50:18;16.33;;;10.98;;
38113;SDS011;23926;53.222;6.354;2023-03-01T08:52:45;18.45;;;13.40;;
38113;SDS011;23926;53.222;6.354;2023-03-01T08:55:13;16.88;;;11.55;;
38113;SDS011;23926;53.222;6.354;2023-03-01T08:57:53;15.63;;;11.50;;
38113;SDS011;23926;53.222;6.354;2023-03-01T09:00:48;17.90;;;11.75;;
38113;SDS011;23926;53.222;6.354;2023-03-01T09:03:39;20.30;;;13.77;;
38113;SDS011;23926;53.222;6.354;2023-03-01T09:06:20;20.25;;;13.18;;
38113;SDS011;23926;53.222;6.354;2023-03-01T09:09:28;18.33;;;12.88;;
38113;SDS011;23926;53.222;6.354;2023-03-01T09:12:12;22.02;;;13.60;;
38113;SDS011;23926;53.222;6.354;2023-03-01T09:15:15;21.75;;;14.68;;
38113;SDS011;23926;53.222;6.354;2023-03-01T09:18:33;20.73;;;13.95;;
38113;SDS011;23926;53.222;6.354;2023-03-01T09:21:26;22.83;;;15.52;;
38113;SDS011;23926;53.222;6.354;2023-03-01T09:24:44;24.00;;;15.73;;
38113;SDS011;23926;53.222;6.354;2023-03-01T09:27:28;26.50;;;16.75;;
38113;SDS011;23926;53.222;6.354;2023-03-01T09:30:28;30.70;;;18.13;;
38113;SDS011;23926;53.222;6.354;2023-03-01T09:33:17;29.15;;;16.95;;
38113;SDS011;23926;53.222;6.354;2023-03-01T09:36:11;33.58;;;18.83;;
38113;SDS011;23926;53.222;6.354;2023-03-01T09:44:45;27.70;;;17.33;;
38113;SDS011;23926;53.222;6.354;2023-03-01T09:47:29;27.92;;;16.95;;
38113;SDS011;23926;53.222;6.354;2023-03-01T09:50:02;31.60;;;19.05;;
38113;SDS011;23926;53.222;6.354;2023-03-01T09:55:31;28.92;;;17.58;;
38113;SDS011;23926;53.222;6.354;2023-03-01T10:01:32;25.35;;;15.80;;
38113;SDS011;23926;53.222;6.354;2023-03-01T10:07:12;23.05;;;15.30;;
38113;SDS011;23926;53.222;6.354;2023-03-01T10:09:59;36.17;;;20.70;;
38113;SDS011;23926;53.222;6.354;2023-03-01T10:12:35;39.38;;;22.40;;
38113;SDS011;23926;53.222;6.354;2023-03-01T10:17:45;25.25;;;15.82;;
38113;SDS011;23926;53.222;6.354;2023-03-01T10:20:19;35.72;;;20.90;;
38113;SDS011;23926;53.222;6.354;2023-03-01T10:22:51;46.85;;;26.38;;
38113;SDS011;23926;53.222;6.354;2023-03-01T10:28:03;39.70;;;23.33;;
38113;SDS011;23926;53.222;6.354;2023-03-01T10:30:37;38.92;;;25.95;;
38113;SDS011;23926;53.222;6.354;2023-03-01T10:33:48;29.00;;;18.05;;
38113;SDS011;23926;53.222;6.354;2023-03-01T10:35:58;25.00;;;17.15;;
38113;SDS011;23926;53.222;6.354;2023-03-01T10:38:25;30.08;;;20.02;;
38113;SDS011;23926;53.222;6.354;2023-03-01T10:40:58;30.73;;;18.13;;
38113;SDS011;23926;53.222;6.354;2023-03-01T10:43:27;38.13;;;22.40;;
38113;SDS011;23926;53.222;6.354;2023-03-01T10:45:57;27.98;;;18.17;;
38113;SDS011;23926;53.222;6.354;2023-03-01T10:48:26;32.15;;;20.55;;
38113;SDS011;23926;53.222;6.354;2023-03-01T10:56:09;36.00;;;21.67;;
38113;SDS011;23926;53.222;6.354;2023-03-01T10:58:39;40.15;;;25.33;;
38113;SDS011;23926;53.222;6.354;2023-03-01T11:01:26;30.98;;;20.58;;
38113;SDS011;23926;53.222;6.354;2023-03-01T11:04:09;32.30;;;21.63;;
38113;SDS011;23926;53.222;6.354;2023-03-01T11:06:38;34.20;;;23.95;;
38113;SDS011;23926;53.222;6.354;2023-03-01T11:11:40;31.23;;;21.55;;
38113;SDS011;23926;53.222;6.354;2023-03-01T11:14:15;29.52;;;19.45;;
38113;SDS011;23926;53.222;6.354;2023-03-01T11:16:44;26.38;;;18.45;;
38113;SDS011;23926;53.222;6.354;2023-03-01T11:21:39;25.85;;;17.15;;
38113;SDS011;23926;53.222;6.354;2023-03-01T11:24:15;26.23;;;17.60;;
38113;SDS011;23926;53.222;6.354;2023-03-01T11:26:44;31.73;;;19.55;;
38113;SDS011;23926;53.222;6.354;2023-03-01T11:29:21;28.00;;;19.70;;
38113;SDS011;23926;53.222;6.354;2023-03-01T11:31:55;27.15;;;20.00;;
38113;SDS011;23926;53.222;6.354;2023-03-01T11:34:45;29.20;;;20.45;;
38113;SDS011;23926;53.222;6.354;2023-03-01T11:37:55;29.17;;;17.83;;
38113;SDS011;23926;53.222;6.354;2023-03-01T11:40:29;28.95;;;18.83;;
38113;SDS011;23926;53.222;6.354;2023-03-01T11:50:57;27.08;;;18.38;;
38113;SDS011;23926;53.222;6.354;2023-03-01T11:58:59;27.55;;;17.98;;
38113;SDS011;23926;53.222;6.354;2023-03-01T12:07:17;22.25;;;15.35;;
38113;SDS011;23926;53.222;6.354;2023-03-01T12:09:58;27.23;;;16.05;;
38113;SDS011;23926;53.222;6.354;2023-03-01T12:12:48;29.10;;;17.85;;
38113;SDS011;23926;53.222;6.354;2023-03-01T12:18:12;28.15;;;17.88;;
38113;SDS011;23926;53.222;6.354;2023-03-01T12:21:09;23.20;;;15.30;;
38113;SDS011;23926;53.222;6.354;2023-03-01T12:23:45;20.25;;;14.40;;
38113;SDS011;23926;53.222;6.354;2023-03-01T12:29:56;21.40;;;14.85;;
38113;SDS011;23926;53.222;6.354;2023-03-01T12:36:08;23.00;;;15.18;;
38113;SDS011;23926;53.222;6.354;2023-03-01T12:38:50;29.63;;;18.65;;
38113;SDS011;23926;53.222;6.354;2023-03-01T12:44:06;26.08;;;15.30;;
38113;SDS011;23926;53.222;6.354;2023-03-01T12:49:28;26.65;;;16.27;;
38113;SDS011;23926;53.222;6.354;2023-03-01T12:52:44;25.15;;;16.70;;
38113;SDS011;23926;53.222;6.354;2023-03-01T12:58:05;24.42;;;16.35;;
38113;SDS011;23926;53.222;6.354;2023-03-01T13:04:06;27.58;;;16.92;;
38113;SDS011;23926;53.222;6.354;2023-03-01T13:13:08;25.35;;;16.92;;
38113;SDS011;23926;53.222;6.354;2023-03-01T13:15:50;21.05;;;14.98;;
38113;SDS011;23926;53.222;6.354;2023-03-01T13:18:27;24.80;;;16.92;;
38113;SDS011;23926;53.222;6.354;2023-03-01T13:21:30;20.73;;;13.95;;
38113;SDS011;23926;53.222;6.354;2023-03-01T13:24:29;22.45;;;14.73;;
38113;SDS011;23926;53.222;6.354;2023-03-01T13:27:23;28.17;;;15.90;;
38113;SDS011;23926;53.222;6.354;2023-03-01T13:30:03;24.23;;;14.55;;
38113;SDS011;23926;53.222;6.354;2023-03-01T13:39:39;20.05;;;13.30;;
38113;SDS011;23926;53.222;6.354;2023-03-01T13:42:42;23.15;;;14.35;;
38113;SDS011;23926;53.222;6.354;2023-03-01T13:45:40;24.65;;;15.10;;
38113;SDS011;23926;53.222;6.354;2023-03-01T13:48:20;19.60;;;14.18;;
38113;SDS011;23926;53.222;6.354;2023-03-01T13:51:28;22.80;;;15.38;;
38113;SDS011;23926;53.222;6.354;2023-03-01T13:54:25;24.27;;;15.30;;
38113;SDS011;23926;53.222;6.354;2023-03-01T13:57:22;25.98;;;16.85;;
38113;SDS011;23926;53.222;6.354;2023-03-01T14:03:17;23.30;;;14.18;;
38113;SDS011;23926;53.222;6.354;2023-03-01T14:06:12;20.88;;;14.35;;
38113;SDS011;23926;53.222;6.354;2023-03-01T14:09:05;22.75;;;14.20;;
38113;SDS011;23926;53.222;6.354;2023-03-01T14:12:04;24.27;;;15.07;;
38113;SDS011;23926;53.222;6.354;2023-03-01T14:20:46;26.33;;;16.05;;
38113;SDS011;23926;53.222;6.354;2023-03-01T14:23:42;24.98;;;14.90;;
38113;SDS011;23926;53.222;6.354;2023-03-01T14:26:29;25.40;;;16.38;;
38113;SDS011;23926;53.222;6.354;2023-03-01T14:29:40;22.38;;;15.18;;
38113;SDS011;23926;53.222;6.354;2023-03-01T14:32:54;25.67;;;17.08;;
38113;SDS011;23926;53.222;6.354;2023-03-01T14:36:07;21.10;;;14.80;;
38113;SDS011;23926;53.222;6.354;2023-03-01T14:39:19;24.27;;;16.15;;
38113;SDS011;23926;53.222;6.354;2023-03-01T14:41:58;21.85;;;14.57;;
38113;SDS011;23926;53.222;6.354;2023-03-01T14:44:50;22.48;;;14.93;;
38113;SDS011;23926;53.222;6.354;2023-03-01T14:47:30;24.40;;;14.32;;
38113;SDS011;23926;53.222;6.354;2023-03-01T14:50:00;19.83;;;13.25;;
38113;SDS011;23926;53.222;6.354;2023-03-01T14:52:40;23.83;;;14.48;;
38113;SDS011;23926;53.222;6.354;2023-03-01T14:55:20;23.58;;;13.90;;
38113;SDS011;23926;53.222;6.354;2023-03-01T14:57:51;21.60;;;13.85;;
38113;SDS011;23926;53.222;6.354;2023-03-01T15:00:28;18.73;;;13.50;;
38113;SDS011;23926;53.222;6.354;2023-03-01T15:02:58;23.58;;;14.50;;
38113;SDS011;23926;53.222;6.354;2023-03-01T15:05:34;22.17;;;14.68;;
38113;SDS011;23926;53.222;6.354;2023-03-01T15:08:02;21.75;;;14.40;;
38113;SDS011;23926;53.222;6.354;2023-03-01T15:10:31;19.73;;;14.50;;
38113;SDS011;23926;53.222;6.354;2023-03-01T15:15:40;24.08;;;16.65;;
38113;SDS011;23926;53.222;6.354;2023-03-01T15:18:19;21.05;;;14.48;;
38113;SDS011;23926;53.222;6.354;2023-03-01T15:20:55;21.63;;;15.52;;
38113;SDS011;23926;53.222;6.354;2023-03-01T15:23:33;20.83;;;14.93;;
38113;SDS011;23926;53.222;6.354;2023-03-01T15:26:06;21.60;;;13.15;;
38113;SDS011;23926;53.222;6.354;2023-03-01T15:28:50;21.13;;;14.13;;
38113;SDS011;23926;53.222;6.354;2023-03-01T15:31:28;22.60;;;14.43;;
38113;SDS011;23926;53.222;6.354;2023-03-01T15:34:08;23.42;;;15.20;;
38113;SDS011;23926;53.222;6.354;2023-03-01T15:36:49;28.88;;;16.00;;
38113;SDS011;23926;53.222;6.354;2023-03-01T15:39:42;20.15;;;14.18;;
38113;SDS011;23926;53.222;6.354;2023-03-01T15:45:09;22.67;;;14.95;;
38113;SDS011;23926;53.222;6.354;2023-03-01T15:47:55;21.85;;;15.20;;
38113;SDS011;23926;53.222;6.354;2023-03-01T15:50:36;25.77;;;16.60;;
38113;SDS011;23926;53.222;6.354;2023-03-01T15:53:10;24.67;;;14.57;;
38113;SDS011;23926;53.222;6.354;2023-03-01T15:55:39;18.88;;;14.02;;
38113;SDS011;23926;53.222;6.354;2023-03-01T15:58:15;24.55;;;15.55;;
38113;SDS011;23926;53.222;6.354;2023-03-01T16:03:23;23.67;;;15.98;;
38113;SDS011;23926;53.222;6.354;2023-03-01T16:06:05;27.98;;;18.58;;
38113;SDS011;23926;53.222;6.354;2023-03-01T16:08:39;31.35;;;20.17;;
38113;SDS011;23926;53.222;6.354;2023-03-01T16:11:13;33.65;;;21.17;;
38113;SDS011;23926;53.222;6.354;2023-03-01T16:14:07;30.65;;;20.65;;
38113;SDS011;23926;53.222;6.354;2023-03-01T16:16:55;30.52;;;20.88;;
38113;SDS011;23926;53.222;6.354;2023-03-01T16:19:24;31.67;;;21.20;;
38113;SDS011;23926;53.222;6.354;2023-03-01T16:21:53;41.33;;;22.88;;
38113;SDS011;23926;53.222;6.354;2023-03-01T16:24:31;35.65;;;22.00;;
38113;SDS011;23926;53.222;6.354;2023-03-01T16:27:02;35.08;;;20.30;;
38113;SDS011;23926;53.222;6.354;2023-03-01T16:29:36;36.92;;;19.92;;
38113;SDS011;23926;53.222;6.354;2023-03-01T16:32:25;34.22;;;20.90;;
38113;SDS011;23926;53.222;6.354;2023-03-01T16:35:07;33.10;;;21.23;;
38113;SDS011;23926;53.222;6.354;2023-03-01T16:37:40;36.00;;;21.63;;
38113;SDS011;23926;53.222;6.354;2023-03-01T16:40:25;33.15;;;20.92;;
38113;SDS011;23926;53.222;6.354;2023-03-01T16:42:59;34.10;;;22.10;;
38113;SDS011;23926;53.222;6.354;2023-03-01T16:45:33;36.55;;;21.65;;
38113;SDS011;23926;53.222;6.354;2023-03-01T16:48:12;34.58;;;21.05;;
38113;SDS011;23926;53.222;6.354;2023-03-01T16:50:44;35.15;;;21.63;;
38113;SDS011;23926;53.222;6.354;2023-03-01T16:53:21;31.85;;;21.25;;
38113;SDS011;23926;53.222;6.354;2023-03-01T16:55:57;33.40;;;21.63;;